^^
Datos históricos de la estación: Murcia-Puente Tocinos
Diario Informe para Febrero 2, 2019 Unidades:  Ambas    Inglés   Métrico
Diario Semanal Mensual Anual Configurable
  Máximo: Mínimo: Media:
Temperatura: 57.9 °F /  14.4 °C 50.2 °F /  10.1 °C 54.1 °F /  12.3 °C
Punto de rocio: 34.2 °F /  1.2 °C 22.5 °F /  -5.3 °C 28 °F /  -2.2 °C
Humedad: 51% 26% 37%
Velocidad viento: 23mph /  37.0km/h - 14.8mph /  23.9km/h
Racha viento: 39mph /  62.8km/h - -
Viento- - West
Presión: 30 in /  1014.7 hPa 29.5 in /  997.9 hPa -
Precipitación: 0 in /  0.0 mm    
Historical Graphs
 
 
Tabla de datos para Febrero 2, 2019
Hora Temperatura Punto de rocio Presión Viento Velocidad viento Racha viento Humedad Intensidad lluvia(por hora) Nubes
00:00 55 °F /  12.8 °C 32.4 °F /  0.2 °C 29.5in /  998.2hPa SW 12mph /  19.3km/h 20mph /  32.2km/h 42% 0in /  0.0mm CLR
00:05 55.2 °F /  12.9 °C 31.3 °F /  -0.4 °C 29.5in /  997.9hPa WSW 11.8mph /  19.0km/h 21.9mph /  35.2km/h 40% 0in /  0.0mm CLR
00:10 55.2 °F /  12.9 °C 31.3 °F /  -0.4 °C 29.5in /  997.9hPa WSW 13mph /  20.9km/h 20.1mph /  32.3km/h 40% 0in /  0.0mm CLR
00:15 55 °F /  12.8 °C 31.1 °F /  -0.5 °C 29.5in /  997.9hPa WSW 13mph /  20.9km/h 17.5mph /  28.2km/h 40% 0in /  0.0mm CLR
00:20 55 °F /  12.8 °C 31.1 °F /  -0.5 °C 29.5in /  998.0hPa SSW 13mph /  20.9km/h 17.3mph /  27.8km/h 40% 0in /  0.0mm CLR
00:25 54.9 °F /  12.7 °C 30.9 °F /  -0.6 °C 29.5in /  998.0hPa SSW 13mph /  20.9km/h 20.7mph /  33.3km/h 40% 0in /  0.0mm CLR
00:30 54.9 °F /  12.7 °C 30.4 °F /  -0.9 °C 29.5in /  998.0hPa WSW 12.3mph /  19.8km/h 19.6mph /  31.5km/h 39% 0in /  0.0mm CLR
00:35 54.7 °F /  12.6 °C 30.2 °F /  -1.0 °C 29.5in /  998.0hPa West 12.3mph /  19.8km/h 18.4mph /  29.6km/h 39% 0in /  0.0mm CLR
00:40 54.7 °F /  12.6 °C 30.2 °F /  -1.0 °C 29.5in /  998.0hPa WSW 13.5mph /  21.7km/h 18.4mph /  29.6km/h 39% 0in /  0.0mm CLR
00:45 54.7 °F /  12.6 °C 30.2 °F /  -1.0 °C 29.5in /  998.0hPa WSW 13.5mph /  21.7km/h 21.9mph /  35.2km/h 39% 0in /  0.0mm CLR
00:50 54.5 °F /  12.5 °C 30 °F /  -1.1 °C 29.5in /  998.0hPa WSW 13.7mph /  22.0km/h 19mph /  30.6km/h 39% 0in /  0.0mm CLR
00:55 54.3 °F /  12.4 °C 30.6 °F /  -0.8 °C 29.5in /  998.0hPa WSW 14mph /  22.5km/h 21mph /  33.8km/h 40% 0in /  0.0mm CLR
01:00 54.3 °F /  12.4 °C 30.6 °F /  -0.8 °C 29.5in /  998.0hPa WSW 13mph /  20.9km/h 21mph /  33.8km/h 40% 0in /  0.0mm CLR
01:05 54.1 °F /  12.3 °C 30.4 °F /  -0.9 °C 29.5in /  998.1hPa WSW 12.5mph /  20.1km/h 17.3mph /  27.8km/h 40% 0in /  0.0mm CLR
01:10 54.1 °F /  12.3 °C 30.9 °F /  -0.6 °C 29.5in /  998.1hPa SW 11.8mph /  19.0km/h 20.7mph /  33.3km/h 41% 0in /  0.0mm CLR
01:15 54 °F /  12.2 °C 30.7 °F /  -0.7 °C 29.5in /  998.1hPa SW 11.8mph /  19.0km/h 16.1mph /  25.9km/h 41% 0in /  0.0mm CLR
01:20 53.8 °F /  12.1 °C 31.8 °F /  -0.1 °C 29.5in /  998.2hPa WSW 12.3mph /  19.8km/h 23mph /  37.0km/h 43% 0in /  0.0mm CLR
01:25 53.8 °F /  12.1 °C 31.8 °F /  -0.1 °C 29.5in /  998.2hPa WSW 12.3mph /  19.8km/h 23mph /  37.0km/h 43% 0in /  0.0mm CLR
01:30 53.8 °F /  12.1 °C 31.8 °F /  -0.1 °C 29.5in /  998.2hPa SW 13.5mph /  21.7km/h 17.3mph /  27.8km/h 43% 0in /  0.0mm CLR
01:35 53.4 °F /  11.9 °C 32 °F /  0.0 °C 29.5in /  998.3hPa SW 13.5mph /  21.7km/h 17.8mph /  28.6km/h 44% 0in /  0.0mm CLR
01:40 53.2 °F /  11.8 °C 32.4 °F /  0.2 °C 29.5in /  998.3hPa SW 10.2mph /  16.4km/h 15mph /  24.1km/h 45% 0in /  0.0mm CLR
01:45 52.9 °F /  11.6 °C 32.5 °F /  0.3 °C 29.5in /  998.3hPa SSW 10.2mph /  16.4km/h 17.3mph /  27.8km/h 46% 0in /  0.0mm CLR
01:50 52.7 °F /  11.5 °C 33.1 °F /  0.6 °C 29.5in /  998.6hPa SW 10.7mph /  17.2km/h 21.9mph /  35.2km/h 47% 0in /  0.0mm CLR
01:55 52.5 °F /  11.4 °C 33.4 °F /  0.8 °C 29.5in /  998.6hPa WSW 10.7mph /  17.2km/h 20.7mph /  33.3km/h 48% 0in /  0.0mm CLR
02:00 52.5 °F /  11.4 °C 34 °F /  1.1 °C 29.5in /  998.6hPa SW 13mph /  20.9km/h 21mph /  33.8km/h 49% 0in /  0.0mm CLR
02:05 52.3 °F /  11.3 °C 33.6 °F /  0.9 °C 29.5in /  998.8hPa SW 12.3mph /  19.8km/h 16.1mph /  25.9km/h 49% 0in /  0.0mm CLR
02:10 52.3 °F /  11.3 °C 34.2 °F /  1.2 °C 29.5in /  998.8hPa SSW 11.2mph /  18.0km/h 16.1mph /  25.9km/h 50% 0in /  0.0mm CLR
02:15 52.2 °F /  11.2 °C 34.2 °F /  1.2 °C 29.5in /  998.8hPa SW 11.2mph /  18.0km/h 17.3mph /  27.8km/h 50% 0in /  0.0mm CLR
02:20 52.2 °F /  11.2 °C 34.2 °F /  1.2 °C 29.5in /  998.6hPa SW 11.4mph /  18.3km/h 15mph /  24.1km/h 50% 0in /  0.0mm CLR
02:25 52 °F /  11.1 °C 34 °F /  1.1 °C 29.5in /  998.6hPa SW 11.4mph /  18.3km/h 21.9mph /  35.2km/h 50% 0in /  0.0mm CLR
02:30 52 °F /  11.1 °C 34 °F /  1.1 °C 29.5in /  998.6hPa SSW 11.2mph /  18.0km/h 17.3mph /  27.8km/h 50% 0in /  0.0mm CLR
02:35 52 °F /  11.1 °C 34 °F /  1.1 °C 29.5in /  999.0hPa SSW 11.2mph /  18.0km/h 16.1mph /  25.9km/h 50% 0in /  0.0mm CLR
02:40 52 °F /  11.1 °C 34 °F /  1.1 °C 29.5in /  999.0hPa SW 10.7mph /  17.2km/h 16.1mph /  25.9km/h 50% 0in /  0.0mm CLR
02:45 51.6 °F /  10.9 °C 34.2 °F /  1.2 °C 29.5in /  999.0hPa SW 10.7mph /  17.2km/h 15mph /  24.1km/h 51% 0in /  0.0mm CLR
02:50 51.6 °F /  10.9 °C 34.2 °F /  1.2 °C 29.5in /  999.3hPa SSW 9.7mph /  15.6km/h 17.3mph /  27.8km/h 51% 0in /  0.0mm CLR
02:55 51.8 °F /  11.0 °C 33.6 °F /  0.9 °C 29.5in /  999.3hPa SSW 9.7mph /  15.6km/h 16.1mph /  25.9km/h 50% 0in /  0.0mm CLR
03:00 52 °F /  11.1 °C 34 °F /  1.1 °C 29.5in /  999.3hPa SW 12mph /  19.3km/h 21mph /  33.8km/h 50% 0in /  0.0mm CLR
03:05 52 °F /  11.1 °C 33.4 °F /  0.8 °C 29.5in /  999.3hPa SSW 11.2mph /  18.0km/h 21.9mph /  35.2km/h 49% 0in /  0.0mm CLR
03:10 52.2 °F /  11.2 °C 33.6 °F /  0.9 °C 29.5in /  999.3hPa SW 10mph /  16.1km/h 22mph /  35.4km/h 49% 0in /  0.0mm CLR
03:15 52.3 °F /  11.3 °C 33.3 °F /  0.7 °C 29.5in /  999.3hPa West 10mph /  16.1km/h 24.2mph /  38.9km/h 48% 0in /  0.0mm CLR
03:20 52.2 °F /  11.2 °C 33.1 °F /  0.6 °C 29.5in /  999.2hPa WSW 14.5mph /  23.3km/h 17.3mph /  27.8km/h 48% 0in /  0.0mm CLR
03:25 52.2 °F /  11.2 °C 33.1 °F /  0.6 °C 29.5in /  999.2hPa West 14.5mph /  23.3km/h 21.5mph /  34.6km/h 48% 0in /  0.0mm CLR
03:30 52.3 °F /  11.3 °C 33.3 °F /  0.7 °C 29.5in /  999.2hPa SW 12.3mph /  19.8km/h 15mph /  24.1km/h 48% 0in /  0.0mm CLR
03:35 52.3 °F /  11.3 °C 32.7 °F /  0.4 °C 29.5in /  999.2hPa SW 12.3mph /  19.8km/h 19.7mph /  31.7km/h 47% 0in /  0.0mm CLR
03:40 52.3 °F /  11.3 °C 32.7 °F /  0.4 °C 29.5in /  999.2hPa SW 12.5mph /  20.1km/h 18.4mph /  29.6km/h 47% 0in /  0.0mm CLR
03:45 52.2 °F /  11.2 °C 32.5 °F /  0.3 °C 29.5in /  999.2hPa WSW 12.5mph /  20.1km/h 17.3mph /  27.8km/h 47% 0in /  0.0mm CLR
03:50 52.2 °F /  11.2 °C 32 °F /  0.0 °C 29.5in /  999.3hPa WSW 12.3mph /  19.8km/h 20.7mph /  33.3km/h 46% 0in /  0.0mm CLR
03:55 52.5 °F /  11.4 °C 31.3 °F /  -0.4 °C 29.5in /  999.3hPa SW 12.3mph /  19.8km/h 26.5mph /  42.6km/h 44% 0in /  0.0mm CLR
04:00 52.9 °F /  11.6 °C 31.5 °F /  -0.3 °C 29.5in /  999.3hPa WSW 15mph /  24.1km/h 27mph /  43.4km/h 44% 0in /  0.0mm CLR
04:05 53.2 °F /  11.8 °C 31.3 °F /  -0.4 °C 29.5in /  999.5hPa West 15.2mph /  24.5km/h 28.8mph /  46.3km/h 43% 0in /  0.0mm CLR
04:10 53.2 °F /  11.8 °C 30.7 °F /  -0.7 °C 29.5in /  999.5hPa West 17mph /  27.4km/h 22.3mph /  35.9km/h 42% 0in /  0.0mm CLR
04:15 53.2 °F /  11.8 °C 30.7 °F /  -0.7 °C 29.5in /  999.5hPa WSW 17mph /  27.4km/h 24.2mph /  38.9km/h 42% 0in /  0.0mm CLR
04:20 53.2 °F /  11.8 °C 30.7 °F /  -0.7 °C 29.5in /  999.8hPa West 14.7mph /  23.7km/h 17.3mph /  27.8km/h 42% 0in /  0.0mm CLR
04:25 53.1 °F /  11.7 °C 30.6 °F /  -0.8 °C 29.5in /  999.8hPa West 14.7mph /  23.7km/h 19.6mph /  31.5km/h 42% 0in /  0.0mm CLR
04:30 52.9 °F /  11.6 °C 30.9 °F /  -0.6 °C 29.5in /  999.8hPa WSW 12.3mph /  19.8km/h 20.7mph /  33.3km/h 43% 0in /  0.0mm CLR
04:35 52.7 °F /  11.5 °C 30.7 °F /  -0.7 °C 29.5in /  999.8hPa WSW 12.3mph /  19.8km/h 21.9mph /  35.2km/h 43% 0in /  0.0mm CLR
04:40 52.5 °F /  11.4 °C 30.6 °F /  -0.8 °C 29.5in /  999.8hPa WSW 13mph /  20.9km/h 19.6mph /  31.5km/h 43% 0in /  0.0mm CLR
04:45 52.5 °F /  11.4 °C 30.6 °F /  -0.8 °C 29.5in /  999.8hPa WSW 13mph /  20.9km/h 24.2mph /  38.9km/h 43% 0in /  0.0mm CLR
04:50 52.7 °F /  11.5 °C 30.7 °F /  -0.7 °C 29.5in /  999.7hPa WSW 14.7mph /  23.7km/h 20.7mph /  33.3km/h 43% 0in /  0.0mm CLR
04:55 52.9 °F /  11.6 °C 30.4 °F /  -0.9 °C 29.5in /  999.7hPa West 14.7mph /  23.7km/h 31.1mph /  50.0km/h 42% 0in /  0.0mm CLR
05:00 52.9 °F /  11.6 °C 30.4 °F /  -0.9 °C 29.5in /  999.7hPa WSW 18mph /  29.0km/h 31mph /  49.9km/h 42% 0in /  0.0mm CLR
05:05 52.9 °F /  11.6 °C 30.4 °F /  -0.9 °C 29.5in /  999.4hPa West 18.1mph /  29.1km/h 27.6mph /  44.4km/h 42% 0in /  0.0mm CLR
05:10 52.9 °F /  11.6 °C 30.4 °F /  -0.9 °C 29.5in /  999.4hPa NW 16.8mph /  27.0km/h 21.9mph /  35.2km/h 42% 0in /  0.0mm CLR
05:15 52.9 °F /  11.6 °C 30.4 °F /  -0.9 °C 29.5in /  999.4hPa SW 16.8mph /  27.0km/h 23mph /  37.0km/h 42% 0in /  0.0mm CLR
05:20 52.9 °F /  11.6 °C 29.8 °F /  -1.2 °C 29.5in /  999.4hPa WSW 16.3mph /  26.2km/h 27.6mph /  44.4km/h 41% 0in /  0.0mm CLR
05:25 52.7 °F /  11.5 °C 29.7 °F /  -1.3 °C 29.5in /  999.4hPa West 16.3mph /  26.2km/h 27.9mph /  44.9km/h 41% 0in /  0.0mm CLR
05:30 52.7 °F /  11.5 °C 30.2 °F /  -1.0 °C 29.5in /  999.4hPa WSW 16.3mph /  26.2km/h 20.7mph /  33.3km/h 42% 0in /  0.0mm CLR
05:35 52.5 °F /  11.4 °C 30 °F /  -1.1 °C 29.5in /  999.3hPa SW 16.3mph /  26.2km/h 24.2mph /  38.9km/h 42% 0in /  0.0mm CLR
05:40 52.7 °F /  11.5 °C 29.7 °F /  -1.3 °C 29.5in /  999.3hPa SW 14.7mph /  23.7km/h 18.4mph /  29.6km/h 41% 0in /  0.0mm CLR
05:45 52.5 °F /  11.4 °C 30 °F /  -1.1 °C 29.5in /  999.3hPa WSW 14.7mph /  23.7km/h 15mph /  24.1km/h 42% 0in /  0.0mm CLR
05:50 52.3 °F /  11.3 °C 29.8 °F /  -1.2 °C 29.5in /  999.5hPa WSW 13mph /  20.9km/h 18.4mph /  29.6km/h 42% 0in /  0.0mm CLR
05:55 52.3 °F /  11.3 °C 29.8 °F /  -1.2 °C 29.5in /  999.5hPa WNW 13mph /  20.9km/h 24.2mph /  38.9km/h 42% 0in /  0.0mm CLR
06:00 52.3 °F /  11.3 °C 29.8 °F /  -1.2 °C 29.5in /  999.5hPa WSW 14mph /  22.5km/h 25mph /  40.2km/h 42% 0in /  0.0mm CLR
06:05 52.3 °F /  11.3 °C 29.8 °F /  -1.2 °C 29.5in /  999.6hPa SW 13.5mph /  21.7km/h 25.3mph /  40.7km/h 42% 0in /  0.0mm CLR
06:10 52.3 °F /  11.3 °C 29.8 °F /  -1.2 °C 29.5in /  999.6hPa West 13.5mph /  21.7km/h 13.8mph /  22.2km/h 42% 0in /  0.0mm CLR
06:15 52.3 °F /  11.3 °C 29.8 °F /  -1.2 °C 29.5in /  999.6hPa SSW 13.5mph /  21.7km/h 10.4mph /  16.7km/h 42% 0in /  0.0mm CLR
06:20 52.3 °F /  11.3 °C 29.8 °F /  -1.2 °C 29.5in /  999.6hPa SW 9.7mph /  15.6km/h 12.7mph /  20.4km/h 42% 0in /  0.0mm CLR
06:25 52.5 °F /  11.4 °C 30 °F /  -1.1 °C 29.5in /  999.6hPa West 9.7mph /  15.6km/h 20.7mph /  33.3km/h 42% 0in /  0.0mm CLR
06:30 52.9 °F /  11.6 °C 29.8 °F /  -1.2 °C 29.5in /  999.6hPa SW 10.7mph /  17.2km/h 24.2mph /  38.9km/h 41% 0in /  0.0mm CLR
06:35 52.9 °F /  11.6 °C 29.8 °F /  -1.2 °C 29.5in /  999.7hPa SW 10.7mph /  17.2km/h 25.3mph /  40.7km/h 41% 0in /  0.0mm CLR
06:40 52.9 °F /  11.6 °C 29.8 °F /  -1.2 °C 29.5in /  999.7hPa South 13.5mph /  21.7km/h 16.1mph /  25.9km/h 41% 0in /  0.0mm CLR
06:45 52.7 °F /  11.5 °C 29.7 °F /  -1.3 °C 29.5in /  999.7hPa South 13.5mph /  21.7km/h 19.6mph /  31.5km/h 41% 0in /  0.0mm CLR
06:50 52.9 °F /  11.6 °C 29.8 °F /  -1.2 °C 29.5in /  999.7hPa WSW 10.7mph /  17.2km/h 25.3mph /  40.7km/h 41% 0in /  0.0mm CLR
06:55 52.9 °F /  11.6 °C 29.8 °F /  -1.2 °C 29.5in /  999.7hPa WSW 10.7mph /  17.2km/h 17.3mph /  27.8km/h 41% 0in /  0.0mm CLR
07:00 52.9 °F /  11.6 °C 29.8 °F /  -1.2 °C 29.5in /  999.7hPa WSW 13mph /  20.9km/h 26mph /  41.8km/h 41% 0in /  0.0mm CLR
07:05 52.9 °F /  11.6 °C 29.8 °F /  -1.2 °C 29.5in /  999.8hPa WNW 13mph /  20.9km/h 21.9mph /  35.2km/h 41% 0in /  0.0mm CLR
07:10 52.7 °F /  11.5 °C 30.2 °F /  -1.0 °C 29.5in /  999.8hPa West 13mph /  20.9km/h 18.4mph /  29.6km/h 42% 0in /  0.0mm CLR
07:15 52.5 °F /  11.4 °C 30 °F /  -1.1 °C 29.5in /  999.8hPa WSW 13mph /  20.9km/h 25.3mph /  40.7km/h 42% 0in /  0.0mm CLR
07:20 52.5 °F /  11.4 °C 30.6 °F /  -0.8 °C 29.5in /  1000.0hPa WSW 13.5mph /  21.7km/h 21.9mph /  35.2km/h 43% 0in /  0.0mm CLR
07:25 52.5 °F /  11.4 °C 30.6 °F /  -0.8 °C 29.5in /  1000.0hPa West 13.5mph /  21.7km/h 20.7mph /  33.3km/h 43% 0in /  0.0mm CLR
07:30 52.3 °F /  11.3 °C 30.9 °F /  -0.6 °C 29.5in /  1000.0hPa WNW 14mph /  22.5km/h 23mph /  37.0km/h 44% 0in /  0.0mm CLR
07:35 52.2 °F /  11.2 °C 30.9 °F /  -0.6 °C 29.5in /  1000.1hPa NW 14mph /  22.5km/h 23mph /  37.0km/h 44% 0in /  0.0mm CLR
07:40 52.2 °F /  11.2 °C 31.5 °F /  -0.3 °C 29.5in /  1000.1hPa West 13mph /  20.9km/h 20.7mph /  33.3km/h 45% 0in /  0.0mm CLR
07:45 52.2 °F /  11.2 °C 31.5 °F /  -0.3 °C 29.5in /  1000.1hPa West 13mph /  20.9km/h 25.3mph /  40.7km/h 45% 0in /  0.0mm CLR
07:50 52.2 °F /  11.2 °C 31.5 °F /  -0.3 °C 29.5in /  1000.5hPa WSW 14.7mph /  23.7km/h 13.8mph /  22.2km/h 45% 0in /  0.0mm CLR
07:55 52 °F /  11.1 °C 31.8 °F /  -0.1 °C 29.5in /  1000.5hPa NNE 14.7mph /  23.7km/h 16.1mph /  25.9km/h 46% 0in /  0.0mm CLR
08:00 52 °F /  11.1 °C 31.8 °F /  -0.1 °C 29.5in /  1000.5hPa West 10mph /  16.1km/h 25mph /  40.2km/h 46% 0in /  0.0mm CLR
08:05 52 °F /  11.1 °C 31.3 °F /  -0.4 °C 29.6in /  1000.8hPa SSW 10mph /  16.1km/h 19mph /  30.6km/h 45% 0in /  0.0mm CLR
08:10 52.2 °F /  11.2 °C 31.5 °F /  -0.3 °C 29.6in /  1000.8hPa WSW 10.2mph /  16.4km/h 17.3mph /  27.8km/h 45% 0in /  0.0mm CLR
08:15 52.2 °F /  11.2 °C 31.5 °F /  -0.3 °C 29.6in /  1000.8hPa WSW 10.2mph /  16.4km/h 12.7mph /  20.4km/h 45% 0in /  0.0mm CLR
08:20 52.2 °F /  11.2 °C 31.5 °F /  -0.3 °C 29.6in /  1001.4hPa WSW 9.2mph /  14.8km/h 11.8mph /  19.0km/h 45% 0in /  0.0mm FEW
08:25 52.3 °F /  11.3 °C 30.9 °F /  -0.6 °C 29.6in /  1001.4hPa WSW 9.2mph /  14.8km/h 16.1mph /  25.9km/h 44% 0in /  0.0mm FEW
08:30 52.2 °F /  11.2 °C 31.5 °F /  -0.3 °C 29.6in /  1001.4hPa West 12.3mph /  19.8km/h 8.1mph /  13.0km/h 45% 0in /  0.0mm FEW
08:35 52 °F /  11.1 °C 31.3 °F /  -0.4 °C 29.6in /  1001.5hPa SW 12.3mph /  19.8km/h 8.1mph /  13.0km/h 45% 0in /  0.0mm FEW
08:40 52 °F /  11.1 °C 31.3 °F /  -0.4 °C 29.6in /  1001.5hPa SW 6.4mph /  10.3km/h 11.5mph /  18.5km/h 45% 0in /  0.0mm FEW
08:45 51.8 °F /  11.0 °C 31.1 °F /  -0.5 °C 29.6in /  1001.5hPa WSW 6.4mph /  10.3km/h 10.4mph /  16.7km/h 45% 0in /  0.0mm FEW
08:50 51.6 °F /  10.9 °C 30.9 °F /  -0.6 °C 29.6in /  1001.7hPa SW 7.4mph /  11.9km/h 12.7mph /  20.4km/h 45% 0in /  0.0mm FEW
08:55 51.8 °F /  11.0 °C 31.1 °F /  -0.5 °C 29.6in /  1001.7hPa SW 7.4mph /  11.9km/h 13.8mph /  22.2km/h 45% 0in /  0.0mm FEW
09:00 52 °F /  11.1 °C 30.7 °F /  -0.7 °C 29.6in /  1001.7hPa WSW 8mph /  12.9km/h 23mph /  37.0km/h 44% 0in /  0.0mm FEW
09:05 52.5 °F /  11.4 °C 30.6 °F /  -0.8 °C 29.6in /  1002.0hPa West 8.5mph /  13.7km/h 24.8mph /  39.9km/h 43% 0in /  0.0mm FEW
09:10 53.1 °F /  11.7 °C 31.1 °F /  -0.5 °C 29.6in /  1002.0hPa WSW 13mph /  20.9km/h 25.3mph /  40.7km/h 43% 0in /  0.0mm FEW
09:15 53.1 °F /  11.7 °C 31.1 °F /  -0.5 °C 29.6in /  1002.0hPa West 13mph /  20.9km/h 31.3mph /  50.4km/h 43% 0in /  0.0mm FEW
09:20 53.2 °F /  11.8 °C 30.7 °F /  -0.7 °C 29.6in /  1002.2hPa NW 14mph /  22.5km/h 16.1mph /  25.9km/h 42% 0in /  0.0mm FEW
09:25 53.4 °F /  11.9 °C 30.9 °F /  -0.6 °C 29.6in /  1002.2hPa West 14mph /  22.5km/h 21.9mph /  35.2km/h 42% 0in /  0.0mm FEW
09:30 53.4 °F /  11.9 °C 30.9 °F /  -0.6 °C 29.6in /  1002.2hPa West 13.5mph /  21.7km/h 19.6mph /  31.5km/h 42% 0in /  0.0mm FEW
09:35 53.6 °F /  12.0 °C 30.9 °F /  -0.6 °C 29.6in /  1002.7hPa WNW 13.5mph /  21.7km/h 19.6mph /  31.5km/h 42% 0in /  0.0mm FEW
09:40 53.8 °F /  12.1 °C 31.3 °F /  -0.4 °C 29.6in /  1002.7hPa NNW 14.7mph /  23.7km/h 28.8mph /  46.3km/h 42% 0in /  0.0mm FEW
09:45 53.8 °F /  12.1 °C 31.3 °F /  -0.4 °C 29.6in /  1002.7hPa SW 14.7mph /  23.7km/h 36.8mph /  59.2km/h 42% 0in /  0.0mm FEW
09:50 53.6 °F /  12.0 °C 30.4 °F /  -0.9 °C 29.6in /  1002.9hPa WNW 20.1mph /  32.3km/h 26.5mph /  42.6km/h 41% 0in /  0.0mm FEW
09:55 53.8 °F /  12.1 °C 30.6 °F /  -0.8 °C 29.6in /  1002.9hPa NW 20.1mph /  32.3km/h 19.6mph /  31.5km/h 41% 0in /  0.0mm FEW
10:00 53.8 °F /  12.1 °C 30.6 °F /  -0.8 °C 29.6in /  1002.9hPa WNW 15mph /  24.1km/h 32mph /  51.5km/h 41% 0in /  0.0mm FEW
10:05 54 °F /  12.2 °C 29.5 °F /  -1.4 °C 29.6in /  1003.0hPa West 15.2mph /  24.5km/h 32.2mph /  51.8km/h 39% 0in /  0.0mm FEW
10:10 54.1 °F /  12.3 °C 30.4 °F /  -0.9 °C 29.6in /  1003.0hPa WSW 17.5mph /  28.2km/h 24.2mph /  38.9km/h 40% 0in /  0.0mm FEW
10:15 54 °F /  12.2 °C 30.2 °F /  -1.0 °C 29.6in /  1003.0hPa West 17.5mph /  28.2km/h 21.9mph /  35.2km/h 40% 0in /  0.0mm FEW
10:20 54 °F /  12.2 °C 29.5 °F /  -1.4 °C 29.6in /  1003.6hPa West 13.7mph /  22.0km/h 29.9mph /  48.1km/h 39% 0in /  0.0mm FEW
10:25 54 °F /  12.2 °C 29.5 °F /  -1.4 °C 29.6in /  1003.6hPa West 13.7mph /  22.0km/h 24.2mph /  38.9km/h 39% 0in /  0.0mm FEW
10:30 54 °F /  12.2 °C 29.5 °F /  -1.4 °C 29.6in /  1003.6hPa SSW 14.7mph /  23.7km/h 20.7mph /  33.3km/h 39% 0in /  0.0mm FEW
10:35 54 °F /  12.2 °C 29.5 °F /  -1.4 °C 29.7in /  1004.3hPa WSW 14.7mph /  23.7km/h 23mph /  37.0km/h 39% 0in /  0.0mm FEW
10:40 54.1 °F /  12.3 °C 29.1 °F /  -1.6 °C 29.7in /  1004.3hPa NW 14.5mph /  23.3km/h 27.6mph /  44.4km/h 38% 0in /  0.0mm FEW
10:45 54.1 °F /  12.3 °C 29.1 °F /  -1.6 °C 29.7in /  1004.3hPa NNE 14.5mph /  23.3km/h 18.4mph /  29.6km/h 38% 0in /  0.0mm FEW
10:50 54.1 °F /  12.3 °C 29.1 °F /  -1.6 °C 29.7in /  1005.0hPa West 14mph /  22.5km/h 31.1mph /  50.0km/h 38% 0in /  0.0mm FEW
10:55 54.1 °F /  12.3 °C 29.1 °F /  -1.6 °C 29.7in /  1005.0hPa West 14mph /  22.5km/h 28.8mph /  46.3km/h 38% 0in /  0.0mm FEW
11:00 54.5 °F /  12.5 °C 28.8 °F /  -1.8 °C 29.7in /  1005.0hPa West 16mph /  25.7km/h 32mph /  51.5km/h 37% 0in /  0.0mm FEW
11:05 54.7 °F /  12.6 °C 28.9 °F /  -1.7 °C 29.7in /  1005.1hPa SW 16.3mph /  26.2km/h 29.4mph /  47.3km/h 37% 0in /  0.0mm FEW
11:10 54.9 °F /  12.7 °C 29.1 °F /  -1.6 °C 29.7in /  1005.1hPa WNW 18.5mph /  29.8km/h 20.7mph /  33.3km/h 37% 0in /  0.0mm FEW
11:15 55 °F /  12.8 °C 29.1 °F /  -1.6 °C 29.7in /  1005.1hPa West 18.5mph /  29.8km/h 32.2mph /  51.8km/h 37% 0in /  0.0mm FEW
11:20 55.2 °F /  12.9 °C 28.8 °F /  -1.8 °C 29.7in /  1005.0hPa WNW 17mph /  27.4km/h 27.6mph /  44.4km/h 36% 0in /  0.0mm FEW
11:25 55.4 °F /  13.0 °C 28.9 °F /  -1.7 °C 29.7in /  1005.0hPa West 17mph /  27.4km/h 24.2mph /  38.9km/h 36% 0in /  0.0mm FEW
11:30 55.6 °F /  13.1 °C 28.9 °F /  -1.7 °C 29.7in /  1005.0hPa WNW 14.5mph /  23.3km/h 23mph /  37.0km/h 36% 0in /  0.0mm FEW
11:35 55.9 °F /  13.3 °C 29.3 °F /  -1.5 °C 29.7in /  1005.0hPa WSW 14.5mph /  23.3km/h 22.5mph /  36.2km/h 36% 0in /  0.0mm FEW
11:40 55.9 °F /  13.3 °C 28.8 °F /  -1.8 °C 29.7in /  1005.0hPa NW 14.5mph /  23.3km/h 27.6mph /  44.4km/h 35% 0in /  0.0mm FEW
11:45 55.9 °F /  13.3 °C 28.8 °F /  -1.8 °C 29.7in /  1005.0hPa West 14.5mph /  23.3km/h 28.8mph /  46.3km/h 35% 0in /  0.0mm FEW
11:50 56.1 °F /  13.4 °C 28.8 °F /  -1.8 °C 29.7in /  1005.1hPa West 16.8mph /  27.0km/h 23mph /  37.0km/h 35% 0in /  0.0mm FEW
11:55 56.1 °F /  13.4 °C 28 °F /  -2.2 °C 29.7in /  1005.1hPa West 16.8mph /  27.0km/h 32.4mph /  52.1km/h 34% 0in /  0.0mm FEW
12:00 56.1 °F /  13.4 °C 28.8 °F /  -1.8 °C 29.7in /  1005.1hPa West 17mph /  27.4km/h 32mph /  51.5km/h 35% 0in /  0.0mm FEW
12:05 55.9 °F /  13.3 °C 27.9 °F /  -2.3 °C 29.7in /  1005.1hPa WNW 16.8mph /  27.0km/h 35.7mph /  57.4km/h 34% 0in /  0.0mm FEW
12:10 55.9 °F /  13.3 °C 27.9 °F /  -2.3 °C 29.7in /  1005.1hPa WNW 19.2mph /  30.9km/h 24.2mph /  38.9km/h 34% 0in /  0.0mm FEW
12:15 56.1 °F /  13.4 °C 27.3 °F /  -2.6 °C 29.7in /  1005.1hPa WNW 19.2mph /  30.9km/h 24.2mph /  38.9km/h 33% 0in /  0.0mm FEW
12:20 56.5 °F /  13.6 °C 27.7 °F /  -2.4 °C 29.7in /  1004.8hPa West 17.8mph /  28.6km/h 16.1mph /  25.9km/h 33% 0in /  0.0mm FEW
12:25 56.5 °F /  13.6 °C 27.7 °F /  -2.4 °C 29.7in /  1004.8hPa WNW 17.8mph /  28.6km/h 20.7mph /  33.3km/h 33% 0in /  0.0mm FEW
12:30 56.7 °F /  13.7 °C 27.1 °F /  -2.7 °C 29.7in /  1004.8hPa WNW 15.9mph /  25.6km/h 26.5mph /  42.6km/h 32% 0in /  0.0mm FEW
12:35 56.7 °F /  13.7 °C 27.1 °F /  -2.7 °C 29.7in /  1004.7hPa WNW 15.9mph /  25.6km/h 35.7mph /  57.4km/h 32% 0in /  0.0mm FEW
12:40 56.8 °F /  13.8 °C 27.3 °F /  -2.6 °C 29.7in /  1004.7hPa West 19.7mph /  31.7km/h 29.9mph /  48.1km/h 32% 0in /  0.0mm FEW
12:45 56.7 °F /  13.7 °C 27.9 °F /  -2.3 °C 29.7in /  1004.7hPa West 19.7mph /  31.7km/h 26.5mph /  42.6km/h 33% 0in /  0.0mm FEW
12:50 56.8 °F /  13.8 °C 27.3 °F /  -2.6 °C 29.7in /  1004.6hPa NW 20.1mph /  32.3km/h 27.6mph /  44.4km/h 32% 0in /  0.0mm FEW
12:55 57.4 °F /  14.1 °C 27.7 °F /  -2.4 °C 29.7in /  1004.6hPa WNW 20.1mph /  32.3km/h 24.2mph /  38.9km/h 32% 0in /  0.0mm FEW
13:00 57.4 °F /  14.1 °C 27.7 °F /  -2.4 °C 29.7in /  1004.6hPa WNW 17mph /  27.4km/h 39mph /  62.8km/h 32% 0in /  0.0mm FEW
13:05 57.2 °F /  14.0 °C 27.7 °F /  -2.4 °C 29.7in /  1004.6hPa WNW 16.8mph /  27.0km/h 23.7mph /  38.1km/h 32% 0in /  0.0mm FEW
13:10 57.6 °F /  14.2 °C 27.9 °F /  -2.3 °C 29.7in /  1004.6hPa West 19.2mph /  30.9km/h 24.2mph /  38.9km/h 32% 0in /  0.0mm FEW
13:15 57.9 °F /  14.4 °C 28.2 °F /  -2.1 °C 29.7in /  1004.6hPa NW 19.2mph /  30.9km/h 25.3mph /  40.7km/h 32% 0in /  0.0mm FEW
13:20 57.6 °F /  14.2 °C 27.9 °F /  -2.3 °C 29.7in /  1004.9hPa West 16.3mph /  26.2km/h 34.5mph /  55.5km/h 32% 0in /  0.0mm FEW
13:25 57.2 °F /  14.0 °C 27.7 °F /  -2.4 °C 29.7in /  1004.9hPa NW 16.3mph /  26.2km/h 35.7mph /  57.4km/h 32% 0in /  0.0mm FEW
13:30 57.2 °F /  14.0 °C 27.7 °F /  -2.4 °C 29.7in /  1004.9hPa WNW 16.8mph /  27.0km/h 35.7mph /  57.4km/h 32% 0in /  0.0mm FEW
13:35 57.6 °F /  14.2 °C 27.1 °F /  -2.7 °C 29.7in /  1005.1hPa West 16.8mph /  27.0km/h 32.2mph /  51.8km/h 31% 0in /  0.0mm FEW
13:40 57.6 °F /  14.2 °C 27.9 °F /  -2.3 °C 29.7in /  1005.1hPa WNW 18.1mph /  29.1km/h 26.5mph /  42.6km/h 32% 0in /  0.0mm FEW
13:45 57.9 °F /  14.4 °C 27.3 °F /  -2.6 °C 29.7in /  1005.1hPa WNW 18.1mph /  29.1km/h 32.2mph /  51.8km/h 31% 0in /  0.0mm
13:50 57.6 °F /  14.2 °C 27.1 °F /  -2.7 °C 29.7in /  1005.2hPa WNW 17.8mph /  28.6km/h 35.1mph /  56.5km/h 31% 0in /  0.0mm CLR
13:55 57.7 °F /  14.3 °C 27.3 °F /  -2.6 °C 29.7in /  1005.2hPa WNW 17.8mph /  28.6km/h 32.2mph /  51.8km/h 31% 0in /  0.0mm CLR
14:00 57.6 °F /  14.2 °C 27.1 °F /  -2.7 °C 29.7in /  1005.2hPa WNW 22mph /  35.4km/h 37mph /  59.5km/h 31% 0in /  0.0mm CLR
14:05 57.6 °F /  14.2 °C 27.1 °F /  -2.7 °C 29.7in /  1005.6hPa WNW 22.3mph /  35.9km/h 19.6mph /  31.5km/h 31% 0in /  0.0mm CLR
14:10 57.9 °F /  14.4 °C 27.3 °F /  -2.6 °C 29.7in /  1005.6hPa NW 17.8mph /  28.6km/h 23mph /  37.0km/h 31% 0in /  0.0mm CLR
14:15 57.9 °F /  14.4 °C 26.6 °F /  -3.0 °C 29.7in /  1005.6hPa WNW 17.8mph /  28.6km/h 29.9mph /  48.1km/h 30% 0in /  0.0mm CLR
14:20 57.4 °F /  14.1 °C 26.2 °F /  -3.2 °C 29.7in /  1005.7hPa NW 16.8mph /  27.0km/h 34.5mph /  55.5km/h 30% 0in /  0.0mm CLR
14:25 57.4 °F /  14.1 °C 26.2 °F /  -3.2 °C 29.7in /  1005.7hPa WNW 16.8mph /  27.0km/h 29.7mph /  47.8km/h 30% 0in /  0.0mm CLR
14:30 57.4 °F /  14.1 °C 26.2 °F /  -3.2 °C 29.7in /  1005.7hPa WNW 20.4mph /  32.8km/h 21.9mph /  35.2km/h 30% 0in /  0.0mm CLR
14:35 56.8 °F /  13.8 °C 25.7 °F /  -3.5 °C 29.7in /  1006.1hPa WNW 20.4mph /  32.8km/h 34.5mph /  55.5km/h 30% 0in /  0.0mm CLR
14:40 57 °F /  13.9 °C 25.9 °F /  -3.4 °C 29.7in /  1006.1hPa WNW 20.1mph /  32.3km/h 27.9mph /  44.9km/h 30% 0in /  0.0mm CLR
14:45 57.2 °F /  14.0 °C 26.1 °F /  -3.3 °C 29.7in /  1006.1hPa WNW 20.1mph /  32.3km/h 32.2mph /  51.8km/h 30% 0in /  0.0mm CLR
14:50 57.6 °F /  14.2 °C 27.1 °F /  -2.7 °C 29.7in /  1006.2hPa NW 18.1mph /  29.1km/h 23mph /  37.0km/h 31% 0in /  0.0mm CLR
14:55 57.4 °F /  14.1 °C 26.2 °F /  -3.2 °C 29.7in /  1006.2hPa West 18.1mph /  29.1km/h 32.2mph /  51.8km/h 30% 0in /  0.0mm CLR
15:00 57 °F /  13.9 °C 25.9 °F /  -3.4 °C 29.7in /  1006.2hPa WNW 21mph /  33.8km/h 39mph /  62.8km/h 30% 0in /  0.0mm CLR
15:05 57 °F /  13.9 °C 25.9 °F /  -3.4 °C 29.7in /  1006.6hPa WNW 20.8mph /  33.5km/h 34.5mph /  55.5km/h 30% 0in /  0.0mm CLR
15:10 57.6 °F /  14.2 °C 26.2 °F /  -3.2 °C 29.7in /  1006.6hPa West 21.9mph /  35.2km/h 38mph /  61.1km/h 30% 0in /  0.0mm CLR
15:15 57.6 °F /  14.2 °C 26.2 °F /  -3.2 °C 29.7in /  1006.6hPa WNW 21.9mph /  35.2km/h 29.9mph /  48.1km/h 30% 0in /  0.0mm CLR
15:20 57.2 °F /  14.0 °C 26.1 °F /  -3.3 °C 29.7in /  1006.9hPa NW 21.5mph /  34.6km/h 31.1mph /  50.0km/h 30% 0in /  0.0mm CLR
15:25 56.8 °F /  13.8 °C 25.7 °F /  -3.5 °C 29.7in /  1006.9hPa NW 21.5mph /  34.6km/h 38mph /  61.1km/h 30% 0in /  0.0mm CLR
15:30 56.7 °F /  13.7 °C 25.5 °F /  -3.6 °C 29.7in /  1006.9hPa West 23mph /  37.0km/h 31.1mph /  50.0km/h 30% 0in /  0.0mm CLR
15:35 56.8 °F /  13.8 °C 25.7 °F /  -3.5 °C 29.7in /  1007.2hPa NW 23mph /  37.0km/h 24.2mph /  38.9km/h 30% 0in /  0.0mm CLR
15:40 57 °F /  13.9 °C 25.9 °F /  -3.4 °C 29.7in /  1007.2hPa WNW 20.4mph /  32.8km/h 27.9mph /  44.9km/h 30% 0in /  0.0mm CLR
15:45 57 °F /  13.9 °C 25 °F /  -3.9 °C 29.7in /  1007.2hPa NW 20.4mph /  32.8km/h 34.5mph /  55.5km/h 29% 0in /  0.0mm CLR
15:50 56.8 °F /  13.8 °C 25 °F /  -3.9 °C 29.8in /  1007.6hPa WNW 21.3mph /  34.3km/h 34.5mph /  55.5km/h 29% 0in /  0.0mm CLR
15:55 57 °F /  13.9 °C 25 °F /  -3.9 °C 29.8in /  1007.6hPa West 21.3mph /  34.3km/h 25.3mph /  40.7km/h 29% 0in /  0.0mm CLR
16:00 56.8 °F /  13.8 °C 25 °F /  -3.9 °C 29.8in /  1007.6hPa WNW 20mph /  32.2km/h 32mph /  51.5km/h 29% 0in /  0.0mm CLR
16:05 56.8 °F /  13.8 °C 24.1 °F /  -4.4 °C 29.8in /  1007.8hPa WNW 19.7mph /  31.7km/h 24.2mph /  38.9km/h 28% 0in /  0.0mm CLR
16:10 57 °F /  13.9 °C 24.3 °F /  -4.3 °C 29.8in /  1007.8hPa NW 19mph /  30.6km/h 32.2mph /  51.8km/h 28% 0in /  0.0mm CLR
16:15 56.8 °F /  13.8 °C 24.1 °F /  -4.4 °C 29.8in /  1007.8hPa WNW 19mph /  30.6km/h 26.3mph /  42.3km/h 28% 0in /  0.0mm CLR
16:20 56.8 °F /  13.8 °C 25 °F /  -3.9 °C 29.8in /  1007.9hPa NNW 17.8mph /  28.6km/h 28.8mph /  46.3km/h 29% 0in /  0.0mm CLR
16:25 57 °F /  13.9 °C 25 °F /  -3.9 °C 29.8in /  1007.9hPa West 17.8mph /  28.6km/h 29.9mph /  48.1km/h 29% 0in /  0.0mm CLR
16:30 57 °F /  13.9 °C 24.3 °F /  -4.3 °C 29.8in /  1007.9hPa NW 19.2mph /  30.9km/h 26.5mph /  42.6km/h 28% 0in /  0.0mm CLR
16:35 57.2 °F /  14.0 °C 24.3 °F /  -4.3 °C 29.8in /  1008.1hPa NW 19.2mph /  30.9km/h 26.5mph /  42.6km/h 28% 0in /  0.0mm CLR
16:40 57.2 °F /  14.0 °C 24.3 °F /  -4.3 °C 29.8in /  1008.1hPa WNW 20.4mph /  32.8km/h 33.4mph /  53.7km/h 28% 0in /  0.0mm CLR
16:45 57.4 °F /  14.1 °C 24.4 °F /  -4.2 °C 29.8in /  1008.1hPa WNW 20.4mph /  32.8km/h 27.5mph /  44.2km/h 28% 0in /  0.0mm CLR
16:50 57 °F /  13.9 °C 24.3 °F /  -4.3 °C 29.8in /  1008.2hPa NW 19.2mph /  30.9km/h 28.8mph /  46.3km/h 28% 0in /  0.0mm CLR
16:55 56.8 °F /  13.8 °C 24.1 °F /  -4.4 °C 29.8in /  1008.2hPa WNW 19.2mph /  30.9km/h 34.5mph /  55.5km/h 28% 0in /  0.0mm CLR
17:00 56.7 °F /  13.7 °C 23.9 °F /  -4.5 °C 29.8in /  1008.2hPa WNW 17mph /  27.4km/h 37mph /  59.5km/h 28% 0in /  0.0mm CLR
17:05 56.7 °F /  13.7 °C 24.6 °F /  -4.1 °C 29.8in /  1008.5hPa NW 17mph /  27.4km/h 36mph /  57.9km/h 29% 0in /  0.0mm CLR
17:10 56.7 °F /  13.7 °C 24.6 °F /  -4.1 °C 29.8in /  1008.5hPa NW 18.5mph /  29.8km/h 20.7mph /  33.3km/h 29% 0in /  0.0mm CLR
17:15 56.7 °F /  13.7 °C 24.6 °F /  -4.1 °C 29.8in /  1008.5hPa West 18.5mph /  29.8km/h 21.9mph /  35.2km/h 29% 0in /  0.0mm CLR
17:20 56.7 °F /  13.7 °C 23.9 °F /  -4.5 °C 29.8in /  1008.6hPa NW 14.5mph /  23.3km/h 21.9mph /  35.2km/h 28% 0in /  0.0mm CLR
17:25 56.7 °F /  13.7 °C 23.9 °F /  -4.5 °C 29.8in /  1008.6hPa NW 14.5mph /  23.3km/h 24.2mph /  38.9km/h 28% 0in /  0.0mm CLR
17:30 56.7 °F /  13.7 °C 23.9 °F /  -4.5 °C 29.8in /  1008.6hPa West 15.9mph /  25.6km/h 27.3mph /  43.9km/h 28% 0in /  0.0mm CLR
17:35 57 °F /  13.9 °C 23.4 °F /  -4.8 °C 29.8in /  1008.7hPa West 15.9mph /  25.6km/h 35.7mph /  57.4km/h 27% 0in /  0.0mm CLR
17:40 57.2 °F /  14.0 °C 23.5 °F /  -4.7 °C 29.8in /  1008.7hPa NNW 18.1mph /  29.1km/h 29.9mph /  48.1km/h 27% 0in /  0.0mm CLR
17:45 57 °F /  13.9 °C 23.4 °F /  -4.8 °C 29.8in /  1008.7hPa WSW 18.1mph /  29.1km/h 31.1mph /  50.0km/h 27% 0in /  0.0mm CLR
17:50 57 °F /  13.9 °C 22.5 °F /  -5.3 °C 29.8in /  1009.0hPa West 18.5mph /  29.8km/h 26.5mph /  42.6km/h 26% 0in /  0.0mm CLR
17:55 57 °F /  13.9 °C 23.4 °F /  -4.8 °C 29.8in /  1009.0hPa WNW 18.5mph /  29.8km/h 15mph /  24.1km/h 27% 0in /  0.0mm CLR
17:59 56.8 °F /  13.8 °C 23.2 °F /  -4.9 °C 29.8in /  1009.0hPa SW 16.8mph /  27.0km/h 23mph /  37.0km/h 27% 0in /  0.0mm CLR
18:05 56.8 °F /  13.8 °C 23.2 °F /  -4.9 °C 29.8in /  1009.6hPa West 16.8mph /  27.0km/h 27.6mph /  44.4km/h 27% 0in /  0.0mm CLR
18:10 56.7 °F /  13.7 °C 23 °F /  -5.0 °C 29.8in /  1009.6hPa WNW 15.6mph /  25.1km/h 25.3mph /  40.7km/h 27% 0in /  0.0mm CLR
18:15 56.5 °F /  13.6 °C 22.8 °F /  -5.1 °C 29.8in /  1009.6hPa West 15.6mph /  25.1km/h 18.4mph /  29.6km/h 27% 0in /  0.0mm CLR
18:20 56.5 °F /  13.6 °C 22.8 °F /  -5.1 °C 29.8in /  1009.7hPa NNW 17mph /  27.4km/h 29.9mph /  48.1km/h 27% 0in /  0.0mm CLR
18:25 56.1 °F /  13.4 °C 22.6 °F /  -5.2 °C 29.8in /  1009.7hPa NW 17mph /  27.4km/h 25.3mph /  40.7km/h 27% 0in /  0.0mm CLR
18:30 56.1 °F /  13.4 °C 22.6 °F /  -5.2 °C 29.8in /  1009.7hPa WNW 15.9mph /  25.6km/h 20.7mph /  33.3km/h 27% 0in /  0.0mm CLR
18:35 55.9 °F /  13.3 °C 23.4 °F /  -4.8 °C 29.8in /  1010.2hPa NW 15.9mph /  25.6km/h 19.6mph /  31.5km/h 28% 0in /  0.0mm CLR
18:40 55.9 °F /  13.3 °C 23.4 °F /  -4.8 °C 29.8in /  1010.2hPa WNW 14mph /  22.5km/h 26.5mph /  42.6km/h 28% 0in /  0.0mm CLR
18:45 55.8 °F /  13.2 °C 23.9 °F /  -4.5 °C 29.8in /  1010.2hPa West 14mph /  22.5km/h 23mph /  37.0km/h 29% 0in /  0.0mm CLR
18:50 55.8 °F /  13.2 °C 23.9 °F /  -4.5 °C 29.8in /  1010.6hPa NW 17mph /  27.4km/h 21.9mph /  35.2km/h 29% 0in /  0.0mm CLR
18:55 55.6 °F /  13.1 °C 23.7 °F /  -4.6 °C 29.8in /  1010.6hPa West 17mph /  27.4km/h 20.7mph /  33.3km/h 29% 0in /  0.0mm CLR
19:00 55.6 °F /  13.1 °C 24.6 °F /  -4.1 °C 29.8in /  1010.6hPa WNW 14mph /  22.5km/h 21mph /  33.8km/h 30% 0in /  0.0mm CLR
19:05 55.4 °F /  13.0 °C 24.4 °F /  -4.2 °C 29.9in /  1010.9hPa West 14mph /  22.5km/h 19.6mph /  31.5km/h 30% 0in /  0.0mm CLR
19:10 55.2 °F /  12.9 °C 24.3 °F /  -4.3 °C 29.9in /  1010.9hPa WNW 12.3mph /  19.8km/h 10.4mph /  16.7km/h 30% 0in /  0.0mm CLR
19:15 55.2 °F /  12.9 °C 24.3 °F /  -4.3 °C 29.9in /  1010.9hPa West 12.3mph /  19.8km/h 21.9mph /  35.2km/h 30% 0in /  0.0mm CLR
19:20 55.2 °F /  12.9 °C 24.3 °F /  -4.3 °C 29.9in /  1011.3hPa NW 11.4mph /  18.3km/h 23mph /  37.0km/h 30% 0in /  0.0mm CLR
19:25 55 °F /  12.8 °C 24.1 °F /  -4.4 °C 29.9in /  1011.3hPa WNW 11.4mph /  18.3km/h 23mph /  37.0km/h 30% 0in /  0.0mm CLR
19:30 54.9 °F /  12.7 °C 24.1 °F /  -4.4 °C 29.9in /  1011.3hPa NW 14mph /  22.5km/h 24.2mph /  38.9km/h 30% 0in /  0.0mm CLR
19:35 54.7 °F /  12.6 °C 24.6 °F /  -4.1 °C 29.9in /  1011.7hPa NNW 14mph /  22.5km/h 19mph /  30.6km/h 31% 0in /  0.0mm CLR
19:40 54.7 °F /  12.6 °C 24.6 °F /  -4.1 °C 29.9in /  1011.7hPa WNW 12.3mph /  19.8km/h 24.2mph /  38.9km/h 31% 0in /  0.0mm CLR
19:45 54.7 °F /  12.6 °C 24.6 °F /  -4.1 °C 29.9in /  1011.7hPa WNW 12.3mph /  19.8km/h 21.9mph /  35.2km/h 31% 0in /  0.0mm CLR
19:50 54.5 °F /  12.5 °C 25.2 °F /  -3.8 °C 29.9in /  1012.0hPa WNW 14.7mph /  23.7km/h 29.9mph /  48.1km/h 32% 0in /  0.0mm CLR
19:55 54.3 °F /  12.4 °C 25.2 °F /  -3.8 °C 29.9in /  1012.0hPa NW 14.7mph /  23.7km/h 25.3mph /  40.7km/h 32% 0in /  0.0mm CLR
20:00 54.3 °F /  12.4 °C 25.9 °F /  -3.4 °C 29.9in /  1012.0hPa WNW 15mph /  24.1km/h 21mph /  33.8km/h 33% 0in /  0.0mm CLR
20:05 54.1 °F /  12.3 °C 25.5 °F /  -3.6 °C 29.9in /  1012.2hPa WNW 15.2mph /  24.5km/h 16.1mph /  25.9km/h 33% 0in /  0.0mm CLR
20:10 54 °F /  12.2 °C 25.5 °F /  -3.6 °C 29.9in /  1012.2hPa NNW 11.2mph /  18.0km/h 19.6mph /  31.5km/h 33% 0in /  0.0mm CLR
20:15 54 °F /  12.2 °C 26.2 °F /  -3.2 °C 29.9in /  1012.2hPa NW 11.2mph /  18.0km/h 22.3mph /  35.9km/h 34% 0in /  0.0mm CLR
20:20 53.8 °F /  12.1 °C 26.1 °F /  -3.3 °C 29.9in /  1012.4hPa NW 13.7mph /  22.0km/h 15mph /  24.1km/h 34% 0in /  0.0mm CLR
20:25 53.6 °F /  12.0 °C 25.9 °F /  -3.4 °C 29.9in /  1012.4hPa West 13.7mph /  22.0km/h 13.8mph /  22.2km/h 34% 0in /  0.0mm CLR
20:30 53.4 °F /  11.9 °C 26.4 °F /  -3.1 °C 29.9in /  1012.4hPa NW 10.2mph /  16.4km/h 10.4mph /  16.7km/h 35% 0in /  0.0mm CLR
20:35 53.4 °F /  11.9 °C 26.4 °F /  -3.1 °C 29.9in /  1012.6hPa WNW 10.2mph /  16.4km/h 16.1mph /  25.9km/h 35% 0in /  0.0mm CLR
20:40 53.2 °F /  11.8 °C 26.2 °F /  -3.2 °C 29.9in /  1012.6hPa WNW 8.7mph /  14.0km/h 20.7mph /  33.3km/h 35% 0in /  0.0mm CLR
20:45 53.2 °F /  11.8 °C 26.2 °F /  -3.2 °C 29.9in /  1012.6hPa WSW 8.7mph /  14.0km/h 13.8mph /  22.2km/h 35% 0in /  0.0mm CLR
20:50 53.1 °F /  11.7 °C 26.1 °F /  -3.3 °C 29.9in /  1012.9hPa WNW 9.7mph /  15.6km/h 13.8mph /  22.2km/h 35% 0in /  0.0mm CLR
20:55 53.1 °F /  11.7 °C 26.1 °F /  -3.3 °C 29.9in /  1012.9hPa WNW 9.7mph /  15.6km/h 18.4mph /  29.6km/h 35% 0in /  0.0mm CLR
21:00 53.1 °F /  11.7 °C 26.1 °F /  -3.3 °C 29.9in /  1012.9hPa West 10mph /  16.1km/h 16mph /  25.7km/h 35% 0in /  0.0mm CLR
21:05 52.9 °F /  11.6 °C 25.9 °F /  -3.4 °C 29.9in /  1013.0hPa WNW 10mph /  16.1km/h 12.7mph /  20.4km/h 35% 0in /  0.0mm CLR
21:10 52.7 °F /  11.5 °C 25.9 °F /  -3.4 °C 29.9in /  1013.0hPa WNW 8.7mph /  14.0km/h 18.4mph /  29.6km/h 35% 0in /  0.0mm CLR
21:15 52.7 °F /  11.5 °C 25.9 °F /  -3.4 °C 29.9in /  1013.0hPa SW 8.7mph /  14.0km/h 12.7mph /  20.4km/h 35% 0in /  0.0mm CLR
21:20 52.5 °F /  11.4 °C 25 °F /  -3.9 °C 29.9in /  1013.0hPa West 10mph /  16.1km/h 20.7mph /  33.3km/h 34% 0in /  0.0mm CLR
21:25 52.5 °F /  11.4 °C 25 °F /  -3.9 °C 29.9in /  1013.0hPa WSW 10mph /  16.1km/h 20.7mph /  33.3km/h 34% 0in /  0.0mm CLR
21:30 52.3 °F /  11.3 °C 25.5 °F /  -3.6 °C 29.9in /  1013.0hPa West 12.5mph /  20.1km/h 15.2mph /  24.5km/h 35% 0in /  0.0mm CLR
21:35 52.3 °F /  11.3 °C 25.5 °F /  -3.6 °C 29.9in /  1013.2hPa West 12.5mph /  20.1km/h 20.1mph /  32.3km/h 35% 0in /  0.0mm CLR
21:40 52.3 °F /  11.3 °C 24.8 °F /  -4.0 °C 29.9in /  1013.2hPa WSW 12.5mph /  20.1km/h 33.4mph /  53.7km/h 34% 0in /  0.0mm CLR
21:45 52.3 °F /  11.3 °C 24.8 °F /  -4.0 °C 29.9in /  1013.2hPa WNW 12.5mph /  20.1km/h 33.5mph /  53.9km/h 34% 0in /  0.0mm CLR
21:50 52.3 °F /  11.3 °C 24.8 °F /  -4.0 °C 29.9in /  1013.3hPa West 16.3mph /  26.2km/h 25.3mph /  40.7km/h 34% 0in /  0.0mm CLR
21:55 52.2 °F /  11.2 °C 24.6 °F /  -4.1 °C 29.9in /  1013.3hPa NNW 16.3mph /  26.2km/h 27.6mph /  44.4km/h 34% 0in /  0.0mm CLR
22:00 52.2 °F /  11.2 °C 24.6 °F /  -4.1 °C 29.9in /  1013.3hPa West 15mph /  24.1km/h 35mph /  56.3km/h 34% 0in /  0.0mm CLR
22:05 52.2 °F /  11.2 °C 24.6 °F /  -4.1 °C 29.9in /  1013.4hPa West 15.2mph /  24.5km/h 17.3mph /  27.8km/h 34% 0in /  0.0mm CLR
22:10 52 °F /  11.1 °C 24.4 °F /  -4.2 °C 29.9in /  1013.4hPa West 17.5mph /  28.2km/h 17.3mph /  27.8km/h 34% 0in /  0.0mm CLR
22:15 52 °F /  11.1 °C 24.4 °F /  -4.2 °C 29.9in /  1013.4hPa WNW 17.5mph /  28.2km/h 16.1mph /  25.9km/h 34% 0in /  0.0mm CLR
22:20 52 °F /  11.1 °C 23.7 °F /  -4.6 °C 29.9in /  1013.8hPa West 13.5mph /  21.7km/h 28.8mph /  46.3km/h 33% 0in /  0.0mm CLR
22:25 52 °F /  11.1 °C 23.7 °F /  -4.6 °C 29.9in /  1013.8hPa NW 13.5mph /  21.7km/h 28.8mph /  46.3km/h 33% 0in /  0.0mm CLR
22:30 51.8 °F /  11.0 °C 22.8 °F /  -5.1 °C 29.9in /  1013.8hPa West 19.7mph /  31.7km/h 26.5mph /  42.6km/h 32% 0in /  0.0mm CLR
22:35 51.6 °F /  10.9 °C 23.4 °F /  -4.8 °C 29.9in /  1014.0hPa West 19.7mph /  31.7km/h 17.3mph /  27.8km/h 33% 0in /  0.0mm CLR
22:40 51.4 °F /  10.8 °C 23.4 °F /  -4.8 °C 29.9in /  1014.0hPa West 15.2mph /  24.5km/h 24.2mph /  38.9km/h 33% 0in /  0.0mm CLR
22:45 51.3 °F /  10.7 °C 23.2 °F /  -4.9 °C 29.9in /  1014.0hPa NW 15.2mph /  24.5km/h 21.9mph /  35.2km/h 33% 0in /  0.0mm CLR
22:50 51.3 °F /  10.7 °C 23.2 °F /  -4.9 °C 29.9in /  1014.1hPa West 14mph /  22.5km/h 24.2mph /  38.9km/h 33% 0in /  0.0mm CLR
22:55 51.1 °F /  10.6 °C 22.8 °F /  -5.1 °C 29.9in /  1014.1hPa WNW 14mph /  22.5km/h 27.6mph /  44.4km/h 33% 0in /  0.0mm CLR
23:00 51.1 °F /  10.6 °C 22.8 °F /  -5.1 °C 29.9in /  1014.1hPa WNW 15mph /  24.1km/h 32mph /  51.5km/h 33% 0in /  0.0mm CLR
23:05 51.1 °F /  10.6 °C 22.8 °F /  -5.1 °C 29.9in /  1014.1hPa WNW 14.7mph /  23.7km/h 34.5mph /  55.5km/h 33% 0in /  0.0mm CLR
23:10 51.1 °F /  10.6 °C 22.8 °F /  -5.1 °C 29.9in /  1014.1hPa WNW 20.1mph /  32.3km/h 35.1mph /  56.5km/h 33% 0in /  0.0mm CLR
23:15 50.9 °F /  10.5 °C 22.8 °F /  -5.1 °C 29.9in /  1014.1hPa West 20.1mph /  32.3km/h 26.5mph /  42.6km/h 33% 0in /  0.0mm CLR
23:20 50.7 °F /  10.4 °C 22.6 °F /  -5.2 °C 30in /  1014.3hPa WNW 20.4mph /  32.8km/h 23mph /  37.0km/h 33% 0in /  0.0mm CLR
23:25 50.7 °F /  10.4 °C 22.6 °F /  -5.2 °C 30in /  1014.3hPa West 20.4mph /  32.8km/h 24.2mph /  38.9km/h 33% 0in /  0.0mm CLR
23:30 50.5 °F /  10.3 °C 23.2 °F /  -4.9 °C 30in /  1014.3hPa WNW 16.8mph /  27.0km/h 17.3mph /  27.8km/h 34% 0in /  0.0mm CLR
23:35 50.4 °F /  10.2 °C 23 °F /  -5.0 °C 30in /  1014.6hPa West 16.8mph /  27.0km/h 18.4mph /  29.6km/h 34% 0in /  0.0mm CLR
23:40 50.4 °F /  10.2 °C 23 °F /  -5.0 °C 30in /  1014.6hPa West 13mph /  20.9km/h 21.9mph /  35.2km/h 34% 0in /  0.0mm CLR
23:45 50.4 °F /  10.2 °C 23.7 °F /  -4.6 °C 30in /  1014.6hPa West 13mph /  20.9km/h 20.7mph /  33.3km/h 35% 0in /  0.0mm CLR
23:50 50.4 °F /  10.2 °C 23.7 °F /  -4.6 °C 30in /  1014.7hPa WNW 14.5mph /  23.3km/h 23mph /  37.0km/h 35% 0in /  0.0mm CLR
23:55 50.2 °F /  10.1 °C 23.5 °F /  -4.7 °C 30in /  1014.7hPa NW 14.5mph /  23.3km/h 18.4mph /  29.6km/h 35% 0in /  0.0mm CLR
Murcia-Puente Tocinos, España
Compliments of Weather Underground - 2.75 mb

La estación de MeteoMurcia.com, publica sus datos en los siguientes proyectos:

Weather Underground PWS IMURCIAP2 Meteoclimatic www.awekas.at

W3Counter
Web Analytics